createdAt,value
2022-09-01T00:00:01.329Z,1005.40
2022-09-01T00:00:08.086Z,1005.45
2022-09-01T00:00:18.113Z,1005.41
2022-09-01T00:00:28.094Z,1005.41
2022-09-01T00:00:38.704Z,1005.48
2022-09-01T00:00:48.090Z,1005.42
2022-09-01T00:00:58.090Z,1005.40
2022-09-01T00:01:08.100Z,1005.41
2022-09-01T00:01:18.124Z,1005.42
2022-09-01T00:01:28.087Z,1005.45
2022-09-01T00:01:38.196Z,1005.45
2022-09-01T00:01:48.163Z,1005.45
2022-09-01T00:01:58.178Z,1005.43
2022-09-01T00:02:08.155Z,1005.42
2022-09-01T00:02:18.205Z,1005.42
2022-09-01T00:02:28.111Z,1005.41
2022-09-01T00:02:38.145Z,1005.40
2022-09-01T00:02:48.143Z,1005.42
2022-09-01T00:02:58.208Z,1005.46
2022-09-01T00:03:08.100Z,1005.44
2022-09-01T00:03:18.763Z,1005.43
2022-09-01T00:03:28.075Z,1005.37
2022-09-01T00:03:38.107Z,1005.43
2022-09-01T00:03:48.102Z,1005.44
2022-09-01T00:03:58.177Z,1005.39
2022-09-01T00:04:08.292Z,1005.43
2022-09-01T00:04:18.165Z,1005.40
2022-09-01T00:04:28.156Z,1005.41
2022-09-01T00:04:38.157Z,1005.42
2022-09-01T00:04:48.125Z,1005.41
2022-09-01T00:04:58.083Z,1005.41
2022-09-01T00:05:08.090Z,1005.42
2022-09-01T00:05:18.132Z,1005.40
2022-09-01T00:05:28.081Z,1005.47
2022-09-01T00:05:38.091Z,1005.42
2022-09-01T00:05:48.059Z,1005.44
2022-09-01T00:05:58.107Z,1005.44
2022-09-01T00:06:08.747Z,1005.43
2022-09-01T00:06:18.068Z,1005.41
2022-09-01T00:06:28.126Z,1005.44
2022-09-01T00:06:38.061Z,1005.46
2022-09-01T00:06:48.075Z,1005.43
2022-09-01T00:06:58.097Z,1005.46
2022-09-01T00:07:08.058Z,1005.48
2022-09-01T00:07:18.684Z,1005.46
2022-09-01T00:07:28.238Z,1005.46
2022-09-01T00:07:38.101Z,1005.47
2022-09-01T00:07:48.077Z,1005.47
2022-09-01T00:07:58.118Z,1005.46
2022-09-01T00:08:08.103Z,1005.50
2022-09-01T00:08:18.797Z,1005.48
2022-09-01T00:08:28.721Z,1005.46
2022-09-01T00:08:38.054Z,1005.48
2022-09-01T00:08:48.083Z,1005.47
2022-09-01T00:08:58.060Z,1005.47
2022-09-01T00:09:08.048Z,1005.44
2022-09-01T00:09:18.094Z,1005.44
2022-09-01T00:09:28.066Z,1005.45
2022-09-01T00:09:38.052Z,1005.47
2022-09-01T00:09:48.053Z,1005.50
2022-09-01T00:09:58.046Z,1005.46
2022-09-01T00:10:08.054Z,1005.46
2022-09-01T00:10:18.090Z,1005.47
2022-09-01T00:10:28.052Z,1005.48
2022-09-01T00:10:38.056Z,1005.45
2022-09-01T00:10:48.050Z,1005.49
2022-09-01T00:10:58.038Z,1005.43
2022-09-01T00:11:08.059Z,1005.49
2022-09-01T00:11:18.066Z,1005.48
2022-09-01T00:11:28.037Z,1005.48
2022-09-01T00:11:38.059Z,1005.46
2022-09-01T00:11:50.728Z,1005.44
2022-09-01T00:11:58.033Z,1005.44
2022-09-01T00:12:08.065Z,1005.44
2022-09-01T00:12:18.038Z,1005.45
2022-09-01T00:12:28.135Z,1005.45
2022-09-01T00:12:38.105Z,1005.45
2022-09-01T00:12:48.042Z,1005.47
2022-09-01T00:12:58.044Z,1005.45
2022-09-01T00:13:08.043Z,1005.46
2022-09-01T00:13:18.040Z,1005.46
2022-09-01T00:13:28.691Z,1005.46
2022-09-01T00:13:38.055Z,1005.45
2022-09-01T00:13:48.757Z,1005.43
2022-09-01T00:13:58.183Z,1005.44
2022-09-01T00:14:09.910Z,1005.47
2022-09-01T00:14:30.635Z,1005.44
2022-09-01T00:14:30.822Z,1005.42
2022-09-01T00:14:40.993Z,1005.44
2022-09-01T00:14:48.024Z,1005.44
2022-09-01T00:14:58.057Z,1005.43
2022-09-01T00:15:08.035Z,1005.44
2022-09-01T00:15:18.040Z,1005.47
2022-09-01T00:15:28.124Z,1005.43
2022-09-01T00:15:38.082Z,1005.47
2022-09-01T00:15:48.090Z,1005.44
2022-09-01T00:15:58.136Z,1005.45
2022-09-01T00:16:08.062Z,1005.43
2022-09-01T00:16:18.090Z,1005.42
2022-09-01T00:16:28.063Z,1005.47
2022-09-01T00:16:38.209Z,1005.50
2022-09-01T00:16:48.045Z,1005.46
2022-09-01T00:16:58.051Z,1005.46
2022-09-01T00:17:08.018Z,1005.42
2022-09-01T00:17:18.037Z,1005.47
2022-09-01T00:17:28.689Z,1005.44
2022-09-01T00:17:38.015Z,1005.45
2022-09-01T00:17:48.100Z,1005.48
2022-09-01T00:17:58.053Z,1005.48
2022-09-01T00:18:08.020Z,1005.45
2022-09-01T00:18:18.287Z,1005.47
2022-09-01T00:18:28.048Z,1005.46
2022-09-01T00:18:38.727Z,1005.47
2022-09-01T00:18:48.022Z,1005.46
2022-09-01T00:18:58.015Z,1005.46
2022-09-01T00:19:08.012Z,1005.45
2022-09-01T00:19:18.005Z,1005.47
2022-09-01T00:19:28.006Z,1005.44
2022-09-01T00:19:38.021Z,1005.45
2022-09-01T00:19:48.020Z,1005.49
2022-09-01T00:19:58.003Z,1005.49
2022-09-01T00:20:08.004Z,1005.45
2022-09-01T00:20:20.540Z,1005.45
2022-09-01T00:20:28.004Z,1005.45
2022-09-01T00:20:38.027Z,1005.45
2022-09-01T00:20:48.336Z,1005.44
2022-09-01T00:20:58.011Z,1005.41
2022-09-01T00:21:08.075Z,1005.43
2022-09-01T00:21:18.048Z,1005.44
2022-09-01T00:21:28.000Z,1005.44
2022-09-01T00:21:38.031Z,1005.45
2022-09-01T00:21:48.033Z,1005.43
2022-09-01T00:21:57.997Z,1005.44
2022-09-01T00:22:08.015Z,1005.45
2022-09-01T00:22:18.007Z,1005.50
2022-09-01T00:22:28.009Z,1005.43
2022-09-01T00:22:38.007Z,1005.43
2022-09-01T00:22:48.754Z,1005.39
2022-09-01T00:22:58.138Z,1005.44
2022-09-01T00:23:08.018Z,1005.44
2022-09-01T00:23:17.986Z,1005.46
2022-09-01T00:23:28.010Z,1005.46
2022-09-01T00:23:37.985Z,1005.46
2022-09-01T00:23:47.989Z,1005.45
2022-09-01T00:23:58.017Z,1005.45
2022-09-01T00:24:08.001Z,1005.42
2022-09-01T00:24:17.986Z,1005.48
2022-09-01T00:24:27.982Z,1005.47
2022-09-01T00:24:37.987Z,1005.44
2022-09-01T00:24:48.005Z,1005.44
2022-09-01T00:24:58.092Z,1005.48
2022-09-01T00:25:07.991Z,1005.47
2022-09-01T00:25:17.987Z,1005.47
2022-09-01T00:25:28.028Z,1005.45
2022-09-01T00:25:37.993Z,1005.47
2022-09-01T00:25:47.991Z,1005.45
2022-09-01T00:25:58.023Z,1005.46
2022-09-01T00:26:07.977Z,1005.44
2022-09-01T00:26:17.998Z,1005.47
2022-09-01T00:26:27.984Z,1005.43
2022-09-01T00:26:37.976Z,1005.44
2022-09-01T00:26:48.017Z,1005.44
2022-09-01T00:26:58.681Z,1005.45
2022-09-01T00:27:07.979Z,1005.41
2022-09-01T00:27:17.990Z,1005.40
2022-09-01T00:27:30.926Z,1005.43
2022-09-01T00:27:37.978Z,1005.44
2022-09-01T00:27:47.993Z,1005.42
2022-09-01T00:27:57.982Z,1005.39
2022-09-01T00:28:08.261Z,1005.40
2022-09-01T00:28:18.081Z,1005.44
2022-09-01T00:28:30.259Z,1005.39
2022-09-01T00:28:37.983Z,1005.39
2022-09-01T00:28:47.967Z,1005.40
2022-09-01T00:28:58.684Z,1005.42
2022-09-01T00:29:08.086Z,1005.39
2022-09-01T00:29:17.987Z,1005.39
2022-09-01T00:29:27.966Z,1005.41
2022-09-01T00:29:37.966Z,1005.42
2022-09-01T00:29:48.033Z,1005.43
2022-09-01T00:29:57.959Z,1005.38
2022-09-01T00:30:07.977Z,1005.40
2022-09-01T00:30:17.954Z,1005.43
2022-09-01T00:30:27.967Z,1005.44
2022-09-01T00:30:38.057Z,1005.44
2022-09-01T00:30:47.990Z,1005.40
2022-09-01T00:30:58.799Z,1005.41
2022-09-01T00:31:08.793Z,1005.45
2022-09-01T00:31:18.056Z,1005.45
2022-09-01T00:31:28.037Z,1005.41
2022-09-01T00:31:38.009Z,1005.45
2022-09-01T00:31:47.965Z,1005.39
2022-09-01T00:31:57.954Z,1005.42
2022-09-01T00:32:07.979Z,1005.42
2022-09-01T00:32:18.125Z,1005.41
2022-09-01T00:32:27.956Z,1005.43
2022-09-01T00:32:37.952Z,1005.43
2022-09-01T00:32:47.949Z,1005.42
2022-09-01T00:32:57.953Z,1005.42
2022-09-01T00:33:08.687Z,1005.41
2022-09-01T00:33:18.294Z,1005.39
2022-09-01T00:33:27.975Z,1005.41
2022-09-01T00:33:37.968Z,1005.36
2022-09-01T00:33:47.945Z,1005.41
2022-09-01T00:33:57.953Z,1005.39
2022-09-01T00:34:08.040Z,1005.39
2022-09-01T00:34:17.957Z,1005.41
2022-09-01T00:34:27.972Z,1005.41
2022-09-01T00:34:37.939Z,1005.37
2022-09-01T00:34:47.942Z,1005.36
2022-09-01T00:34:57.990Z,1005.40
2022-09-01T00:35:07.944Z,1005.42
2022-09-01T00:35:17.985Z,1005.44
2022-09-01T00:35:27.943Z,1005.41
2022-09-01T00:35:37.932Z,1005.40
2022-09-01T00:35:48.688Z,1005.42
2022-09-01T00:35:57.936Z,1005.45
2022-09-01T00:36:07.978Z,1005.39
2022-09-01T00:36:17.950Z,1005.43
2022-09-01T00:36:27.933Z,1005.41
2022-09-01T00:36:37.939Z,1005.43
2022-09-01T00:36:47.966Z,1005.43
2022-09-01T00:36:57.929Z,1005.47
2022-09-01T00:37:07.995Z,1005.46
2022-09-01T00:37:18.699Z,1005.46
2022-09-01T00:37:28.018Z,1005.45
2022-09-01T00:37:37.946Z,1005.45
2022-09-01T00:37:47.946Z,1005.46
2022-09-01T00:37:57.924Z,1005.45
2022-09-01T00:38:07.954Z,1005.48
2022-09-01T00:38:18.871Z,1005.47
2022-09-01T00:38:28.088Z,1005.49
2022-09-01T00:38:37.933Z,1005.46
2022-09-01T00:38:47.969Z,1005.48
2022-09-01T00:38:57.931Z,1005.44
2022-09-01T00:39:07.926Z,1005.43
2022-09-01T00:39:17.934Z,1005.46
2022-09-01T00:39:28.718Z,1005.45
2022-09-01T00:39:37.933Z,1005.47
2022-09-01T00:39:47.936Z,1005.47
2022-09-01T00:39:57.931Z,1005.46
2022-09-01T00:40:08.029Z,1005.45
2022-09-01T00:40:17.969Z,1005.43
2022-09-01T00:40:27.957Z,1005.42
2022-09-01T00:40:38.035Z,1005.44
2022-09-01T00:40:47.956Z,1005.46
2022-09-01T00:40:57.916Z,1005.46
2022-09-01T00:41:07.933Z,1005.47
2022-09-01T00:41:17.913Z,1005.42
2022-09-01T00:41:28.709Z,1005.46
2022-09-01T00:41:38.017Z,1005.46
2022-09-01T00:41:48.184Z,1005.41
2022-09-01T00:41:57.921Z,1005.43
2022-09-01T00:42:07.916Z,1005.41
2022-09-01T00:42:17.929Z,1005.42
2022-09-01T00:42:27.917Z,1005.42
2022-09-01T00:42:37.901Z,1005.42
2022-09-01T00:42:47.906Z,1005.44
2022-09-01T00:42:57.926Z,1005.41
2022-09-01T00:43:07.905Z,1005.43
2022-09-01T00:43:17.929Z,1005.45
2022-09-01T00:43:27.921Z,1005.39
2022-09-01T00:43:38.278Z,1005.48
2022-09-01T00:43:47.896Z,1005.40
2022-09-01T00:43:57.896Z,1005.41
2022-09-01T00:44:07.901Z,1005.42
2022-09-01T00:44:17.891Z,1005.41
2022-09-01T00:44:29.696Z,1005.40
2022-09-01T00:44:37.903Z,1005.40
2022-09-01T00:44:48.697Z,1005.38
2022-09-01T00:44:57.908Z,1005.43
2022-09-01T00:45:07.908Z,1005.40
2022-09-01T00:45:17.898Z,1005.40
2022-09-01T00:45:27.903Z,1005.40
2022-09-01T00:45:37.910Z,1005.39
2022-09-01T00:45:48.078Z,1005.43
2022-09-01T00:45:57.985Z,1005.39
2022-09-01T00:46:07.957Z,1005.40
2022-09-01T00:46:18.421Z,1005.41
2022-09-01T00:46:28.955Z,1005.44
2022-09-01T00:46:47.647Z,1005.42
2022-09-01T00:46:50.376Z,1005.41
2022-09-01T00:46:57.957Z,1005.40
2022-09-01T00:47:07.904Z,1005.44
2022-09-01T00:47:17.878Z,1005.42
2022-09-01T00:47:27.959Z,1005.36
2022-09-01T00:47:37.899Z,1005.40
2022-09-01T00:47:48.703Z,1005.39
2022-09-01T00:47:57.886Z,1005.41
2022-09-01T00:48:07.890Z,1005.41
2022-09-01T00:48:17.971Z,1005.38
2022-09-01T00:48:27.883Z,1005.42
2022-09-01T00:48:37.895Z,1005.37
2022-09-01T00:48:47.933Z,1005.42
2022-09-01T00:48:57.896Z,1005.41
2022-09-01T00:49:08.704Z,1005.44
2022-09-01T00:49:17.867Z,1005.43
2022-09-01T00:49:27.891Z,1005.42
2022-09-01T00:49:37.869Z,1005.36
2022-09-01T00:49:47.893Z,1005.41
2022-09-01T00:49:57.982Z,1005.42
2022-09-01T00:50:07.898Z,1005.45
2022-09-01T00:50:17.875Z,1005.42
2022-09-01T00:50:28.693Z,1005.44
2022-09-01T00:50:37.878Z,1005.42
2022-09-01T00:50:49.534Z,1005.44
2022-09-01T00:51:00.704Z,1005.44
2022-09-01T00:51:07.878Z,1005.44
2022-09-01T00:51:17.868Z,1005.41
2022-09-01T00:51:27.887Z,1005.40
2022-09-01T00:51:37.872Z,1005.44
2022-09-01T00:51:47.882Z,1005.45
2022-09-01T00:51:58.698Z,1005.44
2022-09-01T00:52:07.854Z,1005.44
2022-09-01T00:52:17.857Z,1005.48
2022-09-01T00:52:27.865Z,1005.45
2022-09-01T00:52:37.860Z,1005.45
2022-09-01T00:52:47.866Z,1005.46
2022-09-01T00:52:57.861Z,1005.44
2022-09-01T00:53:07.856Z,1005.43
2022-09-01T00:53:17.864Z,1005.46
2022-09-01T00:53:27.855Z,1005.45
2022-09-01T00:53:37.865Z,1005.43
2022-09-01T00:53:47.859Z,1005.45
2022-09-01T00:53:58.309Z,1005.46
2022-09-01T00:54:07.931Z,1005.46
2022-09-01T00:54:17.860Z,1005.43
2022-09-01T00:54:27.865Z,1005.45
2022-09-01T00:54:37.863Z,1005.43
2022-09-01T00:54:47.859Z,1005.41
2022-09-01T00:54:57.850Z,1005.46
2022-09-01T00:55:07.865Z,1005.47
2022-09-01T00:55:17.874Z,1005.45
2022-09-01T00:55:27.880Z,1005.42
2022-09-01T00:55:38.703Z,1005.44
2022-09-01T00:55:47.840Z,1005.44
2022-09-01T00:55:57.850Z,1005.42
2022-09-01T00:56:07.901Z,1005.44
2022-09-01T00:56:17.846Z,1005.44
2022-09-01T00:56:27.850Z,1005.45
2022-09-01T00:56:37.851Z,1005.44
2022-09-01T00:56:49.680Z,1005.43
2022-09-01T00:56:58.064Z,1005.42
2022-09-01T00:57:07.847Z,1005.43
2022-09-01T00:57:17.887Z,1005.45
2022-09-01T00:57:27.834Z,1005.40
2022-09-01T00:57:38.711Z,1005.42
2022-09-01T00:57:47.901Z,1005.42
2022-09-01T00:57:57.861Z,1005.42
2022-09-01T00:58:07.853Z,1005.44
2022-09-01T00:58:18.412Z,1005.43
2022-09-01T00:58:27.886Z,1005.47
2022-09-01T00:58:37.833Z,1005.41
2022-09-01T00:58:47.828Z,1005.38
2022-09-01T00:58:57.827Z,1005.45
2022-09-01T00:59:07.893Z,1005.44
2022-09-01T00:59:17.834Z,1005.39
2022-09-01T00:59:27.931Z,1005.46
2022-09-01T00:59:40.730Z,1005.44
2022-09-01T00:59:47.929Z,1005.43
2022-09-01T00:59:57.833Z,1005.42
2022-09-01T01:00:07.828Z,1005.43
2022-09-01T01:00:17.869Z,1005.40
2022-09-01T01:00:27.824Z,1005.39
2022-09-01T01:00:37.858Z,1005.41
2022-09-01T01:00:47.820Z,1005.38
2022-09-01T01:00:57.941Z,1005.39
2022-09-01T01:01:07.921Z,1005.35
2022-09-01T01:01:17.857Z,1005.37
2022-09-01T01:01:27.985Z,1005.39
2022-09-01T01:01:37.941Z,1005.39
2022-09-01T01:01:47.860Z,1005.40
2022-09-01T01:01:57.850Z,1005.35
2022-09-01T01:02:07.872Z,1005.36
2022-09-01T01:02:18.791Z,1005.41
2022-09-01T01:02:28.097Z,1005.41
2022-09-01T01:02:37.892Z,1005.37
2022-09-01T01:02:47.845Z,1005.35
2022-09-01T01:02:57.874Z,1005.33
2022-09-01T01:03:07.887Z,1005.35
2022-09-01T01:03:17.897Z,1005.38
2022-09-01T01:03:27.818Z,1005.35
2022-09-01T01:03:37.840Z,1005.32
2022-09-01T01:03:47.930Z,1005.35
2022-09-01T01:03:57.827Z,1005.32
2022-09-01T01:04:07.812Z,1005.35
2022-09-01T01:04:17.867Z,1005.36
2022-09-01T01:04:27.865Z,1005.38
2022-09-01T01:04:37.915Z,1005.31
2022-09-01T01:04:47.804Z,1005.34
2022-09-01T01:04:57.810Z,1005.33
2022-09-01T01:05:07.807Z,1005.34
2022-09-01T01:05:17.822Z,1005.35
2022-09-01T01:05:27.818Z,1005.36
2022-09-01T01:05:37.804Z,1005.37
2022-09-01T01:05:47.813Z,1005.35
2022-09-01T01:05:57.810Z,1005.35
2022-09-01T01:06:07.812Z,1005.33
2022-09-01T01:06:17.805Z,1005.35
2022-09-01T01:06:27.837Z,1005.34
2022-09-01T01:06:37.956Z,1005.35
2022-09-01T01:06:47.808Z,1005.35
2022-09-01T01:06:57.794Z,1005.37
2022-09-01T01:07:07.812Z,1005.36
2022-09-01T01:07:17.828Z,1005.40
2022-09-01T01:07:27.787Z,1005.34
2022-09-01T01:07:37.816Z,1005.35
2022-09-01T01:07:48.068Z,1005.37
2022-09-01T01:07:57.793Z,1005.42
2022-09-01T01:08:07.798Z,1005.39
2022-09-01T01:08:17.798Z,1005.38
2022-09-01T01:08:27.783Z,1005.36
2022-09-01T01:08:37.837Z,1005.38
2022-09-01T01:08:47.792Z,1005.39
2022-09-01T01:08:57.796Z,1005.32
2022-09-01T01:09:07.779Z,1005.37
2022-09-01T01:09:17.795Z,1005.38
2022-09-01T01:09:27.839Z,1005.37
2022-09-01T01:09:37.801Z,1005.36
2022-09-01T01:09:47.781Z,1005.37
2022-09-01T01:09:57.788Z,1005.34
2022-09-01T01:10:07.782Z,1005.33
2022-09-01T01:10:17.806Z,1005.33
2022-09-01T01:10:27.777Z,1005.32
2022-09-01T01:10:37.804Z,1005.39
2022-09-01T01:10:47.874Z,1005.32
2022-09-01T01:10:57.778Z,1005.34
2022-09-01T01:11:07.773Z,1005.37
2022-09-01T01:11:17.874Z,1005.34
2022-09-01T01:11:27.804Z,1005.39
2022-09-01T01:11:37.799Z,1005.32
2022-09-01T01:11:47.776Z,1005.34
2022-09-01T01:11:57.807Z,1005.40
2022-09-01T01:12:07.783Z,1005.32
2022-09-01T01:12:17.776Z,1005.32
2022-09-01T01:12:27.766Z,1005.34
2022-09-01T01:12:37.823Z,1005.37
2022-09-01T01:12:48.712Z,1005.36
2022-09-01T01:12:57.765Z,1005.38
2022-09-01T01:13:07.760Z,1005.35
2022-09-01T01:13:17.787Z,1005.37
2022-09-01T01:13:27.801Z,1005.32
2022-09-01T01:13:37.762Z,1005.33
2022-09-01T01:13:47.783Z,1005.32
2022-09-01T01:13:57.788Z,1005.31
2022-09-01T01:14:07.765Z,1005.35
2022-09-01T01:14:17.788Z,1005.37
2022-09-01T01:14:27.764Z,1005.33
2022-09-01T01:14:37.836Z,1005.33
2022-09-01T01:14:47.773Z,1005.36
2022-09-01T01:14:57.841Z,1005.36
2022-09-01T01:15:07.760Z,1005.34
2022-09-01T01:15:17.881Z,1005.31
2022-09-01T01:15:27.755Z,1005.33
2022-09-01T01:15:37.757Z,1005.34
2022-09-01T01:15:47.774Z,1005.31
2022-09-01T01:15:57.756Z,1005.34
2022-09-01T01:16:08.717Z,1005.34
2022-09-01T01:16:17.780Z,1005.35
2022-09-01T01:16:27.793Z,1005.29
2022-09-01T01:16:37.828Z,1005.31
2022-09-01T01:16:48.741Z,1005.30
2022-09-01T01:16:58.845Z,1005.31
2022-09-01T01:17:07.823Z,1005.35
2022-09-01T01:17:17.751Z,1005.35
2022-09-01T01:17:27.757Z,1005.38
2022-09-01T01:17:37.778Z,1005.40
2022-09-01T01:17:47.741Z,1005.34
2022-09-01T01:17:57.743Z,1005.39
2022-09-01T01:18:07.760Z,1005.39
2022-09-01T01:18:23.155Z,1005.35
2022-09-01T01:18:27.750Z,1005.36
2022-09-01T01:18:37.751Z,1005.37
2022-09-01T01:18:47.744Z,1005.32
2022-09-01T01:18:58.740Z,1005.40
2022-09-01T01:19:07.813Z,1005.34
2022-09-01T01:19:17.748Z,1005.41
2022-09-01T01:19:27.751Z,1005.37
2022-09-01T01:19:39.106Z,1005.41
2022-09-01T01:19:47.778Z,1005.38
2022-09-01T01:19:57.751Z,1005.35
2022-09-01T01:20:07.736Z,1005.36
2022-09-01T01:20:17.734Z,1005.36
2022-09-01T01:20:27.753Z,1005.32
2022-09-01T01:20:37.741Z,1005.35
2022-09-01T01:20:47.720Z,1005.39
2022-09-01T01:20:57.744Z,1005.37
2022-09-01T01:21:08.765Z,1005.38
2022-09-01T01:21:17.737Z,1005.36
2022-09-01T01:21:27.759Z,1005.38
2022-09-01T01:21:37.729Z,1005.35
2022-09-01T01:21:47.756Z,1005.37
2022-09-01T01:21:57.763Z,1005.39
2022-09-01T01:22:07.725Z,1005.32
2022-09-01T01:22:17.796Z,1005.37
2022-09-01T01:22:27.721Z,1005.40
2022-09-01T01:22:37.838Z,1005.37
2022-09-01T01:22:47.741Z,1005.33
2022-09-01T01:22:57.733Z,1005.36
2022-09-01T01:23:08.744Z,1005.32
2022-09-01T01:23:17.799Z,1005.32
2022-09-01T01:23:27.735Z,1005.32
2022-09-01T01:23:37.724Z,1005.34
2022-09-01T01:23:47.817Z,1005.41
2022-09-01T01:23:57.731Z,1005.35
2022-09-01T01:24:07.766Z,1005.38
2022-09-01T01:24:17.719Z,1005.36
2022-09-01T01:24:27.718Z,1005.37
2022-09-01T01:24:38.740Z,1005.40
2022-09-01T01:24:47.722Z,1005.38
2022-09-01T01:24:57.807Z,1005.35
2022-09-01T01:25:07.715Z,1005.36
2022-09-01T01:25:18.274Z,1005.33
2022-09-01T01:25:27.720Z,1005.38
2022-09-01T01:25:37.724Z,1005.34
2022-09-01T01:25:47.731Z,1005.34
2022-09-01T01:25:57.725Z,1005.36
2022-09-01T01:26:07.725Z,1005.36
2022-09-01T01:26:17.795Z,1005.31
2022-09-01T01:26:27.701Z,1005.38
2022-09-01T01:26:37.711Z,1005.39
2022-09-01T01:26:47.718Z,1005.39
2022-09-01T01:26:57.714Z,1005.39
2022-09-01T01:27:07.707Z,1005.41
2022-09-01T01:27:17.728Z,1005.41
2022-09-01T01:27:27.834Z,1005.40
2022-09-01T01:27:42.525Z,1005.39
2022-09-01T01:27:47.703Z,1005.33
2022-09-01T01:27:57.708Z,1005.35
2022-09-01T01:28:07.744Z,1005.37
2022-09-01T01:28:17.704Z,1005.39
2022-09-01T01:28:27.733Z,1005.40
2022-09-01T01:28:38.249Z,1005.39
2022-09-01T01:28:47.692Z,1005.42
2022-09-01T01:28:57.728Z,1005.41
2022-09-01T01:29:07.763Z,1005.36
2022-09-01T01:29:17.700Z,1005.39
2022-09-01T01:29:28.282Z,1005.39
2022-09-01T01:29:37.702Z,1005.39
2022-09-01T01:29:47.687Z,1005.37
2022-09-01T01:29:57.697Z,1005.36
2022-09-01T01:30:09.366Z,1005.39
2022-09-01T01:30:17.709Z,1005.38
2022-09-01T01:30:27.720Z,1005.38
2022-09-01T01:30:38.359Z,1005.40
2022-09-01T01:30:47.724Z,1005.39
2022-09-01T01:30:57.780Z,1005.40
2022-09-01T01:31:07.748Z,1005.39
2022-09-01T01:31:17.780Z,1005.40
2022-09-01T01:31:27.736Z,1005.37
2022-09-01T01:31:37.798Z,1005.39
2022-09-01T01:31:47.737Z,1005.39
2022-09-01T01:31:57.684Z,1005.38
2022-09-01T01:32:07.686Z,1005.37
2022-09-01T01:32:17.681Z,1005.36
2022-09-01T01:32:27.673Z,1005.38
2022-09-01T01:32:37.690Z,1005.40
2022-09-01T01:32:47.710Z,1005.35
2022-09-01T01:32:57.671Z,1005.36
2022-09-01T01:33:08.221Z,1005.36
2022-09-01T01:33:17.698Z,1005.34
2022-09-01T01:33:28.225Z,1005.34
2022-09-01T01:33:38.245Z,1005.34
2022-09-01T01:33:47.674Z,1005.38
2022-09-01T01:33:57.668Z,1005.37
2022-09-01T01:34:07.691Z,1005.34
2022-09-01T01:34:17.670Z,1005.39
2022-09-01T01:34:27.782Z,1005.37
2022-09-01T01:34:37.705Z,1005.36
2022-09-01T01:34:48.831Z,1005.34
2022-09-01T01:34:57.775Z,1005.36
2022-09-01T01:35:07.705Z,1005.35
2022-09-01T01:35:17.718Z,1005.34
2022-09-01T01:35:27.663Z,1005.33
2022-09-01T01:35:38.215Z,1005.33
2022-09-01T01:35:47.661Z,1005.35
2022-09-01T01:35:57.806Z,1005.37
2022-09-01T01:36:07.693Z,1005.35
2022-09-01T01:36:17.671Z,1005.33
2022-09-01T01:36:27.692Z,1005.30
2022-09-01T01:36:37.668Z,1005.31
2022-09-01T01:36:47.658Z,1005.35
2022-09-01T01:36:57.688Z,1005.34
2022-09-01T01:37:07.668Z,1005.37
2022-09-01T01:37:17.673Z,1005.31
2022-09-01T01:37:27.673Z,1005.30
2022-09-01T01:37:37.680Z,1005.34
2022-09-01T01:37:48.247Z,1005.33
2022-09-01T01:37:57.891Z,1005.31
2022-09-01T01:38:07.667Z,1005.36
2022-09-01T01:38:17.659Z,1005.32
2022-09-01T01:38:27.653Z,1005.37
2022-09-01T01:38:37.646Z,1005.34
2022-09-01T01:38:47.653Z,1005.36
2022-09-01T01:38:57.738Z,1005.35
2022-09-01T01:39:07.654Z,1005.35
2022-09-01T01:39:17.648Z,1005.37
2022-09-01T01:39:27.676Z,1005.38
2022-09-01T01:39:37.649Z,1005.37
2022-09-01T01:39:48.222Z,1005.35
2022-09-01T01:39:57.785Z,1005.36
2022-09-01T01:40:07.673Z,1005.37
2022-09-01T01:40:17.712Z,1005.38
2022-09-01T01:40:27.790Z,1005.38
2022-09-01T01:40:37.692Z,1005.32
2022-09-01T01:40:47.749Z,1005.36
2022-09-01T01:40:57.640Z,1005.37
2022-09-01T01:41:07.647Z,1005.33
2022-09-01T01:41:18.218Z,1005.37
2022-09-01T01:41:27.664Z,1005.37
2022-09-01T01:41:37.634Z,1005.35
2022-09-01T01:41:47.645Z,1005.37
2022-09-01T01:41:58.244Z,1005.37
2022-09-01T01:42:07.636Z,1005.37
2022-09-01T01:42:17.656Z,1005.37
2022-09-01T01:42:27.632Z,1005.38
2022-09-01T01:42:37.642Z,1005.36
2022-09-01T01:42:47.640Z,1005.38
2022-09-01T01:42:57.637Z,1005.39
2022-09-01T01:43:07.632Z,1005.38
2022-09-01T01:43:17.672Z,1005.38
2022-09-01T01:43:27.664Z,1005.37
2022-09-01T01:43:37.654Z,1005.41
2022-09-01T01:43:47.625Z,1005.33
2022-09-01T01:43:58.226Z,1005.39
2022-09-01T01:44:07.627Z,1005.38
2022-09-01T01:44:17.618Z,1005.39
2022-09-01T01:44:27.658Z,1005.36
2022-09-01T01:44:40.227Z,1005.37
2022-09-01T01:44:47.625Z,1005.38
2022-09-01T01:44:57.651Z,1005.39
2022-09-01T01:45:07.699Z,1005.37
2022-09-01T01:45:17.615Z,1005.38
2022-09-01T01:45:27.621Z,1005.36
2022-09-01T01:45:37.711Z,1005.36
2022-09-01T01:45:47.701Z,1005.33
2022-09-01T01:45:57.661Z,1005.36
2022-09-01T01:46:07.774Z,1005.39
2022-09-01T01:46:17.667Z,1005.37
2022-09-01T01:46:27.805Z,1005.35
2022-09-01T01:46:37.633Z,1005.37
2022-09-01T01:46:47.626Z,1005.36
2022-09-01T01:46:57.628Z,1005.40
2022-09-01T01:47:07.621Z,1005.40
2022-09-01T01:47:17.606Z,1005.37
2022-09-01T01:47:27.612Z,1005.39
2022-09-01T01:47:37.612Z,1005.40
2022-09-01T01:47:47.611Z,1005.40
2022-09-01T01:47:57.628Z,1005.41
2022-09-01T01:48:08.245Z,1005.42
2022-09-01T01:48:18.345Z,1005.40
2022-09-01T01:48:27.619Z,1005.41
2022-09-01T01:48:38.263Z,1005.38
2022-09-01T01:48:47.612Z,1005.40
2022-09-01T01:48:57.612Z,1005.41
2022-09-01T01:49:07.609Z,1005.40
2022-09-01T01:49:17.620Z,1005.44
2022-09-01T01:49:27.625Z,1005.45
2022-09-01T01:49:37.603Z,1005.42
2022-09-01T01:49:47.610Z,1005.39
2022-09-01T01:49:57.599Z,1005.38
2022-09-01T01:50:07.606Z,1005.38
2022-09-01T01:50:17.662Z,1005.36
2022-09-01T01:50:27.599Z,1005.36
2022-09-01T01:50:37.593Z,1005.39
2022-09-01T01:50:47.645Z,1005.39
2022-09-01T01:50:57.592Z,1005.36
2022-09-01T01:51:07.629Z,1005.38
2022-09-01T01:51:17.598Z,1005.38
2022-09-01T01:51:27.601Z,1005.39
2022-09-01T01:51:37.617Z,1005.38
2022-09-01T01:51:47.610Z,1005.37
2022-09-01T01:51:57.596Z,1005.40
2022-09-01T01:52:08.236Z,1005.41
2022-09-01T01:52:18.253Z,1005.39
2022-09-01T01:52:27.597Z,1005.40
2022-09-01T01:52:37.672Z,1005.39
2022-09-01T01:52:47.587Z,1005.35
2022-09-01T01:52:58.563Z,1005.39
2022-09-01T01:53:11.134Z,1005.39
2022-09-01T01:53:17.640Z,1005.40
2022-09-01T01:53:27.580Z,1005.38
2022-09-01T01:53:37.760Z,1005.38
2022-09-01T01:53:47.589Z,1005.38
2022-09-01T01:53:57.581Z,1005.38
2022-09-01T01:54:07.594Z,1005.38
2022-09-01T01:54:17.652Z,1005.36
2022-09-01T01:54:27.714Z,1005.34
2022-09-01T01:54:37.597Z,1005.34
2022-09-01T01:54:47.577Z,1005.37
2022-09-01T01:55:00.172Z,1005.36
2022-09-01T01:55:07.614Z,1005.35
2022-09-01T01:55:17.577Z,1005.36
2022-09-01T01:55:27.593Z,1005.34
2022-09-01T01:55:37.631Z,1005.36
2022-09-01T01:55:47.678Z,1005.37
2022-09-01T01:55:57.630Z,1005.36
2022-09-01T01:56:07.571Z,1005.35
2022-09-01T01:56:18.294Z,1005.35
2022-09-01T01:56:28.245Z,1005.38
2022-09-01T01:56:37.568Z,1005.36
2022-09-01T01:56:47.566Z,1005.38
2022-09-01T01:56:57.573Z,1005.38
2022-09-01T01:57:08.241Z,1005.38
2022-09-01T01:57:17.563Z,1005.36
2022-09-01T01:57:27.578Z,1005.38
2022-09-01T01:57:37.560Z,1005.35
2022-09-01T01:57:47.563Z,1005.36
2022-09-01T01:57:57.575Z,1005.39
2022-09-01T01:58:07.652Z,1005.35
2022-09-01T01:58:18.323Z,1005.37
2022-09-01T01:58:27.639Z,1005.37
2022-09-01T01:58:37.673Z,1005.39
2022-09-01T01:58:47.572Z,1005.38
2022-09-01T01:58:58.234Z,1005.41
2022-09-01T01:59:08.190Z,1005.38
2022-09-01T01:59:17.560Z,1005.42
2022-09-01T01:59:27.583Z,1005.37
2022-09-01T01:59:37.551Z,1005.38
2022-09-01T01:59:48.241Z,1005.40
2022-09-01T01:59:57.554Z,1005.36
2022-09-01T02:00:07.558Z,1005.39
2022-09-01T02:00:17.583Z,1005.37
2022-09-01T02:00:30.174Z,1005.34
2022-09-01T02:00:37.601Z,1005.36
2022-09-01T02:00:47.587Z,1005.40